Time;durP1;ratioP1;P1;durP2;ratioP2;P2;SDS_P1;SDS_P2;PMS_P1;PMS_P2;Temp;Humidity;BMP_temperature;BMP_pressure;BME280_temperature;BME280_humidity;BME280_pressure;Samples;Min_cycle;Max_cycle;Signal;HPM_P1;HPM_P2
2022/07/09 00:00:44;;;;;;;17.33;11.00;;;;;;;17.37;74.61;102717.81;5069916;28;20096;-76
2022/07/09 00:03:11;;;;;;;15.38;11.88;;;;;;;17.34;74.39;102718.78;5069652;28;20049;-75
2022/07/09 00:05:38;;;;;;;14.13;11.20;;;;;;;17.30;74.32;102718.88;5069813;28;20041;-75
2022/07/09 00:08:06;;;;;;;18.00;11.88;;;;;;;17.27;74.48;102716.31;5066392;28;20041;-75
2022/07/09 00:10:33;;;;;;;15.90;11.77;;;;;;;17.21;74.76;102707.56;5070684;28;20499;-75
2022/07/09 00:13:00;;;;;;;17.00;12.88;;;;;;;17.19;75.20;102719.19;5069201;28;20850;-75
2022/07/09 00:15:27;;;;;;;16.77;11.82;;;;;;;17.10;74.98;102701.66;5072319;28;20095;-75
2022/07/09 00:17:54;;;;;;;16.92;12.20;;;;;;;17.06;75.46;102706.22;5073450;28;20108;-75
2022/07/09 00:20:22;;;;;;;20.13;12.82;;;;;;;17.03;76.07;102702.78;5073029;28;20043;-75
2022/07/09 00:22:49;;;;;;;14.88;12.55;;;;;;;16.98;76.36;102708.22;5073492;28;20886;-73
2022/07/09 00:25:16;;;;;;;16.30;10.85;;;;;;;16.93;76.35;102702.13;5072698;28;20575;-74
2022/07/09 00:27:44;;;;;;;18.23;12.52;;;;;;;16.88;76.31;102702.25;5073416;28;20041;-74
2022/07/09 00:30:12;;;;;;;16.08;11.40;;;;;;;16.85;76.27;102701.44;5074256;28;20564;-73
2022/07/09 00:32:39;;;;;;;14.43;11.60;;;;;;;16.81;76.57;102700.66;5071849;28;21231;-74
2022/07/09 00:35:10;;;;;;;14.68;12.32;;;;;;;16.77;76.81;102699.00;5072083;28;20055;-73
2022/07/09 00:37:38;;;;;;;17.13;13.32;;;;;;;16.74;76.64;102702.59;5060292;28;20090;-74
2022/07/09 00:40:06;;;;;;;16.70;12.00;;;;;;;16.70;76.55;102700.97;5070435;28;20041;-74
2022/07/09 00:42:33;;;;;;;15.30;12.05;;;;;;;16.67;76.58;102700.16;5062535;28;20078;-74
2022/07/09 00:45:00;;;;;;;16.55;12.55;;;;;;;16.65;76.64;102699.34;5068918;28;20045;-75
2022/07/09 00:47:27;;;;;;;18.30;11.60;;;;;;;16.62;77.14;102700.28;5072695;28;20045;-75
2022/07/09 00:49:55;;;;;;;15.93;11.43;;;;;;;16.60;77.43;102694.13;5074024;28;20112;-75
2022/07/09 00:52:22;;;;;;;15.10;12.75;;;;;;;16.58;77.20;102686.16;5071913;28;20048;-75
2022/07/09 00:54:50;;;;;;;18.05;13.57;;;;;;;16.58;77.36;102694.16;5070439;28;20516;-73
2022/07/09 00:57:19;;;;;;;17.80;12.70;;;;;;;16.58;77.04;102696.81;5069147;28;20091;-74
2022/07/09 00:59:47;;;;;;;16.15;14.00;;;;;;;16.58;77.06;102690.63;5066893;28;20041;-73
2022/07/09 01:02:16;;;;;;;18.48;13.75;;;;;;;16.59;77.95;102698.56;5067258;28;20040;-73
2022/07/09 01:04:43;;;;;;;17.30;13.70;;;;;;;16.61;79.30;102701.22;5069131;28;20046;-73
2022/07/09 01:07:10;;;;;;;18.02;13.27;;;;;;;16.58;79.41;102696.81;5073600;28;20037;-74
2022/07/09 01:09:38;;;;;;;19.45;14.88;;;;;;;16.56;79.15;102693.34;5068940;28;20154;-73
2022/07/09 01:12:07;;;;;;;17.40;13.25;;;;;;;16.56;79.49;102696.00;5068260;28;20087;-74
2022/07/09 01:14:34;;;;;;;19.17;14.30;;;;;;;16.51;79.37;102695.22;5067881;28;20041;-73
2022/07/09 01:17:05;;;;;;;16.20;12.55;;;;;;;16.51;79.27;102692.56;5052980;28;20041;-73
2022/07/09 01:19:34;;;;;;;16.83;13.40;;;;;;;16.51;79.78;102694.38;5069362;28;20045;-74
2022/07/09 01:22:02;;;;;;;17.75;13.88;;;;;;;16.48;79.86;102697.09;5070150;28;20041;-75
2022/07/09 01:24:33;;;;;;;18.13;13.45;;;;;;;16.45;80.11;102692.75;5065680;28;20095;-74
2022/07/09 01:27:02;;;;;;;17.45;13.73;;;;;;;16.40;80.18;102691.97;5067197;28;20569;-73
2022/07/09 01:29:29;;;;;;;21.15;14.60;;;;;;;16.36;80.14;102693.84;5066611;28;20040;-74
2022/07/09 01:31:56;;;;;;;19.52;13.55;;;;;;;16.34;80.28;102693.00;5071939;28;20048;-73
2022/07/09 01:34:23;;;;;;;20.50;14.57;;;;;;;16.32;80.22;102689.53;5069806;28;20365;-73
2022/07/09 01:36:50;;;;;;;18.40;15.43;;;;;;;16.32;80.14;102689.53;5072095;28;20072;-73
2022/07/09 01:39:18;;;;;;;20.58;15.18;;;;;;;16.28;79.98;102680.72;5071494;28;20048;-74
2022/07/09 01:41:45;;;;;;;19.80;14.90;;;;;;;16.27;79.85;102686.97;5071472;28;20132;-77
2022/07/09 01:44:12;;;;;;;18.40;15.18;;;;;;;16.24;79.49;102673.75;5071674;28;20041;-77
2022/07/09 01:46:39;;;;;;;21.25;15.50;;;;;;;16.21;79.08;102676.47;5071412;28;20045;-77
2022/07/09 01:49:06;;;;;;;20.33;14.80;;;;;;;16.20;79.68;102669.41;5068664;28;20095;-76
2022/07/09 01:51:34;;;;;;;21.30;14.82;;;;;;;16.17;79.82;102666.84;5071558;28;20052;-76
2022/07/09 01:54:03;;;;;;;21.45;15.63;;;;;;;16.13;79.68;102662.50;5068365;28;20053;-76
2022/07/09 01:56:31;;;;;;;19.92;15.70;;;;;;;16.12;79.62;102671.38;5071757;28;20041;-77
2022/07/09 01:58:58;;;;;;;20.42;15.40;;;;;;;16.09;79.81;102669.69;5069562;28;20121;-77
2022/07/09 02:01:25;;;;;;;20.65;15.10;;;;;;;16.08;79.86;102670.59;5071023;28;20048;-76
2022/07/09 02:03:53;;;;;;;20.58;15.32;;;;;;;16.07;80.06;102665.31;5072708;28;20878;-78
2022/07/09 02:06:20;;;;;;;23.67;15.88;;;;;;;16.04;80.46;102660.91;5070636;28;20037;-76
2022/07/09 02:08:47;;;;;;;22.58;15.70;;;;;;;16.01;80.60;102658.34;5069491;28;20697;-76
2022/07/09 02:11:14;;;;;;;18.50;13.65;;;;;;;15.98;80.89;102664.59;5072330;28;20132;-76
2022/07/09 02:13:43;;;;;;;19.88;15.68;;;;;;;15.93;81.09;102662.97;5070778;28;20041;-77
2022/07/09 02:16:10;;;;;;;20.35;15.25;;;;;;;15.89;81.40;102661.31;5071147;28;20051;-76
2022/07/09 02:18:38;;;;;;;19.33;14.95;;;;;;;15.85;81.28;102657.84;5071234;28;20412;-76
2022/07/09 02:21:07;;;;;;;20.02;15.07;;;;;;;15.80;81.51;102657.94;5072212;28;20495;-76
2022/07/09 02:23:34;;;;;;;20.55;14.88;;;;;;;15.76;81.37;102650.91;5068750;28;20090;-76
2022/07/09 02:26:01;;;;;;;19.95;15.05;;;;;;;15.73;81.72;102656.28;5072438;28;20041;-76
2022/07/09 02:28:28;;;;;;;18.27;13.25;;;;;;;15.70;81.78;102653.72;5069789;28;20060;-74
2022/07/09 02:30:57;;;;;;;20.48;14.48;;;;;;;15.70;81.86;102656.38;5069900;28;20480;-75
2022/07/09 02:33:24;;;;;;;19.45;13.48;;;;;;;15.72;82.02;102648.38;5057692;28;20054;-75
2022/07/09 02:35:58;;;;;;;21.83;15.77;;;;;;;15.65;81.79;102648.53;5065506;28;20049;-75
2022/07/09 02:38:25;;;;;;;17.08;14.57;;;;;;;15.64;81.76;102646.78;5069615;28;20045;-73
2022/07/09 02:40:52;;;;;;;18.25;14.48;;;;;;;15.64;81.63;102643.22;5071272;28;20456;-75
2022/07/09 02:43:19;;;;;;;20.48;15.18;;;;;;;15.64;81.85;102638.78;5068366;28;20048;-74
2022/07/09 02:45:46;;;;;;;20.95;15.77;;;;;;;15.62;81.59;102635.28;5070623;28;20069;-73
2022/07/09 02:48:14;;;;;;;21.45;15.07;;;;;;;15.62;81.74;102634.41;5068984;28;20136;-73
2022/07/09 02:50:41;;;;;;;17.98;13.90;;;;;;;15.59;81.96;102642.47;5072243;28;20107;-72
2022/07/09 02:53:09;;;;;;;18.58;14.77;;;;;;;15.52;81.77;102639.94;5069056;28;20485;-74
2022/07/09 02:55:36;;;;;;;23.30;16.00;;;;;;;15.47;81.88;102646.25;5070977;28;20095;-73
2022/07/09 02:58:03;;;;;;;25.08;16.35;;;;;;;15.45;82.04;102638.31;5070747;28;20823;-73
2022/07/09 03:00:30;;;;;;;20.50;15.15;;;;;;;15.44;81.89;102631.25;5069782;28;20110;-74
2022/07/09 03:02:57;;;;;;;20.80;15.07;;;;;;;15.44;82.32;102631.25;5068555;28;20045;-76
2022/07/09 03:05:25;;;;;;;21.20;15.02;;;;;;;15.41;82.18;102631.34;5069158;28;20033;-75
2022/07/09 03:07:52;;;;;;;23.77;15.57;;;;;;;15.41;82.49;102634.00;5068883;28;20838;-76
2022/07/09 03:10:19;;;;;;;19.25;14.70;;;;;;;15.40;82.67;102628.72;5071522;28;20776;-77
2022/07/09 03:12:46;;;;;;;21.98;15.90;;;;;;;15.37;83.11;102632.31;5070052;28;20508;-76
2022/07/09 03:15:14;;;;;;;22.42;16.38;;;;;;;15.32;83.36;102627.09;5071866;28;20045;-78
2022/07/09 03:17:46;;;;;;;25.77;15.55;;;;;;;15.28;83.79;102619.22;5069256;28;20044;-78
2022/07/09 03:20:14;;;;;;;22.20;15.20;;;;;;;15.24;84.35;102628.16;5071683;28;20034;-77
2022/07/09 03:22:41;;;;;;;21.30;15.02;;;;;;;15.18;84.63;102627.41;5070704;28;20520;-77
2022/07/09 03:25:08;;;;;;;23.90;14.57;;;;;;;15.14;84.90;102632.81;5070350;28;20037;-76
2022/07/09 03:27:36;;;;;;;24.38;15.63;;;;;;;15.09;85.15;102638.22;5069181;28;20099;-76
2022/07/09 03:30:05;;;;;;;24.13;15.75;;;;;;;15.07;85.26;102637.38;5070625;28;20652;-76
2022/07/09 03:32:32;;;;;;;26.38;16.42;;;;;;;15.02;85.78;102640.13;5069816;28;20041;-76
2022/07/09 03:34:59;;;;;;;23.92;16.42;;;;;;;15.00;85.64;102644.59;5070276;28;20071;-76
2022/07/09 03:37:26;;;;;;;25.27;16.95;;;;;;;14.97;85.54;102647.28;5070480;28;20036;-75
2022/07/09 03:39:53;;;;;;;28.73;18.65;;;;;;;14.96;85.44;102648.19;5069043;28;20040;-75
2022/07/09 03:42:20;;;;;;;22.95;17.90;;;;;;;14.97;85.61;102641.97;5070530;28;20107;-76
2022/07/09 03:44:48;;;;;;;22.83;15.05;;;;;;;14.99;85.40;102650.81;5070488;28;20546;-76
2022/07/09 03:47:15;;;;;;;21.27;16.08;;;;;;;15.00;85.44;102647.25;5070091;28;20041;-78
2022/07/09 03:49:42;;;;;;;23.73;16.15;;;;;;;15.04;85.33;102648.06;5072479;28;20104;-77
2022/07/09 03:52:10;;;;;;;26.13;16.08;;;;;;;15.07;85.19;102648.84;5073618;28;20048;-77
2022/07/09 03:54:44;;;;;;;24.05;15.25;;;;;;;15.12;85.49;102645.25;5068527;28;22289;-77
2022/07/09 03:57:12;;;;;;;23.48;16.52;;;;;;;15.15;85.16;102654.03;5072437;28;20444;-77
2022/07/09 03:59:39;;;;;;;25.73;16.25;;;;;;;15.18;85.43;102648.66;5072189;28;20040;-77
2022/07/09 04:02:07;;;;;;;24.70;16.77;;;;;;;15.19;85.30;102646.84;5071541;28;20051;-77
2022/07/09 04:04:40;;;;;;;29.42;17.05;;;;;;;15.21;85.10;102650.38;5069329;28;20038;-76
2022/07/09 04:07:07;;;;;;;30.40;17.48;;;;;;;15.26;85.16;102650.25;5054641;28;20127;-76
2022/07/09 04:09:35;;;;;;;21.67;15.00;;;;;;;15.32;85.08;102647.47;5071567;28;20053;-77
2022/07/09 04:12:02;;;;;;;24.83;17.42;;;;;;;15.34;85.55;102641.22;5064545;28;20119;-76
2022/07/09 04:14:29;;;;;;;24.17;15.30;;;;;;;15.41;85.04;102634.00;5072392;28;20099;-76
2022/07/09 04:16:56;;;;;;;24.15;16.35;;;;;;;15.47;84.99;102625.88;5073594;28;20044;-77
2022/07/09 04:19:24;;;;;;;23.75;16.15;;;;;;;15.51;84.81;102629.34;5072039;28;20085;-76
2022/07/09 04:21:51;;;;;;;26.98;17.10;;;;;;;15.55;84.91;102632.81;5073902;28;20147;-76
2022/07/09 04:24:18;;;;;;;24.92;16.75;;;;;;;15.59;84.86;102635.34;5071848;28;20041;-77
2022/07/09 04:26:46;;;;;;;25.13;16.70;;;;;;;15.62;84.64;102639.72;5071573;28;20301;-75
2022/07/09 04:29:13;;;;;;;23.65;16.30;;;;;;;15.62;84.67;102634.41;5073355;28;20837;-75
2022/07/09 04:31:41;;;;;;;21.00;15.85;;;;;;;15.63;84.39;102650.34;5073953;28;20150;-74
2022/07/09 04:34:08;;;;;;;22.55;16.77;;;;;;;15.67;84.46;102649.34;5063954;28;20944;-75
2022/07/09 04:36:40;;;;;;;25.08;16.30;;;;;;;15.74;84.23;102651.88;5072315;28;20531;-75
2022/07/09 04:39:07;;;;;;;21.90;16.98;;;;;;;15.76;84.01;102634.09;5065977;28;20052;-77
2022/07/09 04:41:34;;;;;;;25.05;17.77;;;;;;;15.81;84.05;102640.16;5067089;28;20037;-76
2022/07/09 04:44:01;;;;;;;29.27;18.10;;;;;;;15.90;83.90;102631.16;5063721;28;20124;-75
2022/07/09 04:46:30;;;;;;;27.10;16.67;;;;;;;15.97;83.72;102641.56;5067183;28;20117;-78
2022/07/09 04:48:58;;;;;;;26.38;17.75;;;;;;;16.09;83.75;102634.19;5063092;28;20178;-76
2022/07/09 04:51:25;;;;;;;22.77;16.15;;;;;;;16.18;83.23;102635.78;5070902;28;20045;-76
2022/07/09 04:53:52;;;;;;;23.00;17.27;;;;;;;16.26;82.90;102631.13;5061122;28;20040;-74
2022/07/09 04:56:19;;;;;;;21.17;16.27;;;;;;;16.32;82.38;102628.31;5062475;28;20056;-73
2022/07/09 04:58:52;;;;;;;24.50;17.40;;;;;;;16.34;82.07;102626.47;5065600;28;20073;-75
2022/07/09 05:01:21;;;;;;;24.60;17.98;;;;;;;16.37;81.95;102617.56;5062953;28;20073;-75
2022/07/09 05:03:49;;;;;;;23.65;16.50;;;;;;;16.40;81.62;102625.44;5060627;28;20045;-73
2022/07/09 05:06:19;;;;;;;26.25;17.27;;;;;;;16.47;81.54;102640.34;5067435;28;20096;-74
2022/07/09 05:08:47;;;;;;;21.60;16.52;;;;;;;16.53;81.52;102631.31;5066563;28;20061;-76
2022/07/09 05:11:14;;;;;;;23.25;16.80;;;;;;;16.62;81.22;102625.75;5062038;28;20091;-76
2022/07/09 05:13:46;;;;;;;22.30;17.40;;;;;;;16.74;81.30;102629.84;5064100;28;20176;-77
2022/07/09 05:16:14;;;;;;;24.55;17.40;;;;;;;17.04;80.43;102635.25;5060545;28;20041;-79
2022/07/09 05:18:41;;;;;;;21.95;16.55;;;;;;;17.14;80.31;102626.06;5063952;28;20053;-78
2022/07/09 05:21:09;;;;;;;24.27;17.88;;;;;;;17.26;79.90;102632.81;5065701;28;20048;-80
2022/07/09 05:23:37;;;;;;;21.55;17.05;;;;;;;17.31;79.35;102625.56;5065549;28;20049;-80
2022/07/09 05:26:10;;;;;;;26.10;17.95;;;;;;;17.52;78.64;102623.16;5061726;28;20064;-80
2022/07/09 05:28:41;;;;;;;26.33;15.75;;;;;;;17.58;78.24;102625.63;5064309;28;20049;-82
2022/07/09 05:31:08;;;;;;;22.33;16.73;;;;;;;17.65;77.90;102624.50;5066572;28;20099;-79
2022/07/09 05:33:56;;;;;;;21.00;15.07;;;;;;;18.77;75.00;102621.63;5071253;28;20120;-79
2022/07/09 05:36:23;;;;;;;21.92;16.08;;;;;;;19.52;73.01;102622.34;5069547;28;20501;-79
2022/07/09 05:38:50;;;;;;;20.45;16.10;;;;;;;21.16;68.41;102613.59;5064408;28;20041;-79
2022/07/09 05:41:19;;;;;;;19.77;15.75;;;;;;;22.06;65.69;102609.22;5066230;28;20128;-80
2022/07/09 05:43:46;;;;;;;20.38;14.88;;;;;;;23.36;61.53;102603.19;5062432;28;20072;-78
2022/07/09 05:46:13;;;;;;;18.23;14.70;;;;;;;24.45;57.17;102595.00;5053325;28;20100;-77
2022/07/09 05:48:41;;;;;;;19.75;15.00;;;;;;;24.60;57.19;102585.09;5068542;28;20068;-78
2022/07/09 05:51:08;;;;;;;20.30;14.95;;;;;;;25.09;54.41;102591.06;5071236;28;20037;-80
2022/07/09 05:53:35;;;;;;;18.77;14.38;;;;;;;24.75;55.14;102593.19;5059499;28;20052;-77
2022/07/09 05:56:07;;;;;;;17.88;14.30;;;;;;;24.58;55.43;102591.53;5070248;28;20124;-78
2022/07/09 05:58:34;;;;;;;18.60;14.38;;;;;;;24.96;54.43;102596.38;5066847;28;20068;-75
2022/07/09 06:01:03;;;;;;;15.93;13.48;;;;;;;24.85;54.84;102601.59;5070333;28;20087;-77
2022/07/09 06:03:30;;;;;;;18.50;14.50;;;;;;;25.15;53.47;102603.28;5065756;28;20550;-77
2022/07/09 06:05:58;;;;;;;17.20;14.73;;;;;;;25.55;52.79;102601.53;5061803;28;20056;-77
2022/07/09 06:08:25;;;;;;;17.80;14.85;;;;;;;25.89;51.91;102603.81;5058262;28;20151;-78
2022/07/09 06:10:53;;;;;;;15.50;13.80;;;;;;;25.97;51.04;102606.84;5068147;28;20045;-78
2022/07/09 06:13:20;;;;;;;16.77;14.35;;;;;;;24.77;52.41;102611.03;5057145;28;20130;-76
2022/07/09 06:15:48;;;;;;;20.48;14.75;;;;;;;23.61;55.82;102612.53;5067920;28;20460;-77
2022/07/09 06:18:16;;;;;;;19.73;16.55;;;;;;;22.81;58.08;102615.19;5063276;28;20048;-76
2022/07/09 06:20:44;;;;;;;17.67;15.00;;;;;;;22.23;59.83;102621.78;5064915;28;20116;-76
2022/07/09 06:23:12;;;;;;;17.08;13.45;;;;;;;21.70;61.82;102624.44;5070379;28;20049;-77
2022/07/09 06:25:41;;;;;;;21.27;17.25;;;;;;;21.29;62.77;102625.47;5069632;28;20045;-77
2022/07/09 06:28:08;;;;;;;19.75;14.93;;;;;;;21.02;63.65;102620.44;5068750;28;20048;-75
2022/07/09 06:30:35;;;;;;;20.90;17.17;;;;;;;20.83;64.59;102612.41;5070562;28;20127;-77
2022/07/09 06:33:03;;;;;;;21.10;16.17;;;;;;;20.64;65.38;102612.34;5073720;28;20033;-77
2022/07/09 06:35:32;;;;;;;21.20;15.45;;;;;;;20.45;65.78;102623.88;5065707;28;20194;-76
2022/07/09 06:38:00;;;;;;;24.27;17.75;;;;;;;20.30;66.24;102616.50;5062876;28;20037;-75
2022/07/09 06:40:28;;;;;;;20.38;17.40;;;;;;;20.41;66.52;102622.25;5068847;28;20049;-75
2022/07/09 06:42:57;;;;;;;27.15;17.20;;;;;;;20.57;66.04;102619.78;5059250;28;20037;-76
2022/07/09 06:45:32;;;;;;;23.45;16.73;;;;;;;20.86;65.88;102612.25;5067078;28;20044;-72
2022/07/09 06:48:00;;;;;;;24.83;16.25;;;;;;;21.08;65.56;102619.28;5064718;28;20706;-76
2022/07/09 06:50:27;;;;;;;20.92;16.15;;;;;;;21.06;65.61;102616.69;5058541;28;20047;-78
2022/07/09 06:52:54;;;;;;;19.90;16.67;;;;;;;20.94;65.70;102625.31;5065926;28;20120;-78
2022/07/09 06:55:21;;;;;;;21.63;15.77;;;;;;;20.81;66.04;102626.84;5067417;28;20095;-78
2022/07/09 06:57:48;;;;;;;22.88;17.45;;;;;;;20.64;66.62;102623.94;5062504;28;20038;-77
2022/07/09 07:00:16;;;;;;;21.52;16.58;;;;;;;20.53;66.81;102614.63;5053732;28;20055;-78
2022/07/09 07:02:43;;;;;;;21.25;14.68;;;;;;;20.52;66.46;102620.91;5062869;28;21014;-77
2022/07/09 07:05:12;;;;;;;21.27;15.15;;;;;;;20.63;66.40;102610.59;5061794;28;20043;-77
2022/07/09 07:07:45;;;;;;;16.90;14.02;;;;;;;20.96;65.90;102618.06;5063431;28;20049;-81
2022/07/09 07:10:12;;;;;;;23.45;14.20;;;;;;;21.15;65.64;102620.78;5067669;28;20045;-80
2022/07/09 07:12:40;;;;;;;18.55;13.82;;;;;;;21.14;65.47;102618.13;5066737;28;20041;-79
2022/07/09 07:15:08;;;;;;;18.65;14.63;;;;;;;21.26;64.74;102626.47;5067496;28;20049;-79
2022/07/09 07:17:35;;;;;;;16.20;11.85;;;;;;;21.34;65.10;102623.44;5066596;28;20044;-80
2022/07/09 07:20:03;;;;;;;17.23;13.60;;;;;;;21.45;64.85;102622.03;5068101;28;20109;-78
2022/07/09 07:22:30;;;;;;;18.30;12.38;;;;;;;21.59;64.22;102624.09;5065821;28;20091;-79
2022/07/09 07:24:57;;;;;;;16.60;12.63;;;;;;;21.71;64.09;102628.84;5063692;28;20069;-78
2022/07/09 07:27:24;;;;;;;17.13;14.27;;;;;;;21.85;63.80;102633.53;5057575;28;20033;-78
2022/07/09 07:29:51;;;;;;;17.75;13.18;;;;;;;22.09;63.52;102622.50;5063566;28;20092;-79
2022/07/09 07:32:18;;;;;;;13.95;11.90;;;;;;;22.10;63.52;102621.56;5063328;28;20091;-79
2022/07/09 07:34:50;;;;;;;15.10;13.05;;;;;;;22.11;62.72;102617.94;5047999;28;20048;-81
2022/07/09 07:37:17;;;;;;;15.07;11.68;;;;;;;;;;5061173;28;20125;-77
2022/07/09 07:39:47;;;;;;;15.40;11.98;;;;;;;22.13;62.66;102621.41;5067113;28;20042;-77
2022/07/09 07:42:15;;;;;;;14.45;11.90;;;;;;;22.14;63.28;102617.75;5067329;28;20120;-78
2022/07/09 07:44:42;;;;;;;15.25;11.60;;;;;;;22.28;63.27;102623.28;5067208;28;20072;-77
2022/07/09 07:47:10;;;;;;;14.55;11.32;;;;;;;22.26;61.79;102622.50;5067887;28;20157;-76
2022/07/09 07:49:37;;;;;;;15.70;11.90;;;;;;;22.16;61.85;102619.44;5067553;28;20045;-76
2022/07/09 07:52:07;;;;;;;16.42;11.27;;;;;;;22.29;62.17;102611.59;5060867;28;20041;-76
2022/07/09 07:54:35;;;;;;;14.18;9.93;;;;;;;22.37;61.21;102603.16;5065808;28;20120;-76
2022/07/09 07:57:03;;;;;;;13.63;10.02;;;;;;;22.45;61.58;102609.00;5068031;28;20041;-76
2022/07/09 07:59:30;;;;;;;12.88;10.43;;;;;;;22.46;60.85;102607.19;5062668;28;20053;-77
2022/07/09 08:01:58;;;;;;;14.88;10.40;;;;;;;22.33;61.19;102606.94;5067569;28;20037;-76
2022/07/09 08:04:26;;;;;;;32.08;10.63;;;;;;;22.27;60.90;102592.00;5058186;28;20041;-77
2022/07/09 08:06:53;;;;;;;12.10;9.13;;;;;;;22.24;60.89;102594.00;5066587;28;20051;-77
2022/07/09 08:09:21;;;;;;;14.98;9.35;;;;;;;22.26;61.14;102601.00;5066029;28;20081;-78
2022/07/09 08:11:48;;;;;;;162.27;16.90;;;;;;;22.39;60.83;102587.78;5067065;28;20041;-76
2022/07/09 08:14:16;;;;;;;16.33;10.00;;;;;;;22.55;61.00;102587.03;5065809;28;20107;-77
2022/07/09 08:16:43;;;;;;;13.57;9.70;;;;;;;22.64;60.46;102573.09;5065166;28;20092;-76
2022/07/09 08:19:13;;;;;;;12.35;9.05;;;;;;;22.79;60.80;102579.44;5062536;28;20037;-75
2022/07/09 08:21:40;;;;;;;6.30;4.88;;;;;;;22.96;58.32;102578.50;5066031;28;20647;-75
2022/07/09 08:24:07;;;;;;;9.90;7.03;;;;;;;23.01;57.86;102570.19;5067025;28;20063;-77
2022/07/09 08:26:34;;;;;;;9.50;7.82;;;;;;;23.07;58.74;102575.22;5057349;28;20045;-75
2022/07/09 08:29:02;;;;;;;14.82;7.30;;;;;;;23.15;58.30;102577.47;5067698;28;20570;-75
2022/07/09 08:31:29;;;;;;;13.90;6.63;;;;;;;23.26;58.83;102572.38;5064427;28;20041;-76
2022/07/09 08:33:56;;;;;;;12.00;7.78;;;;;;;23.42;58.15;102556.22;5068241;28;20091;-75
2022/07/09 08:36:23;;;;;;;9.25;6.88;;;;;;;23.66;57.07;102550.34;5059737;28;20040;-78
2022/07/09 08:38:51;;;;;;;10.60;7.55;;;;;;;23.76;56.19;102551.53;5068271;28;20136;-76
2022/07/09 08:41:22;;;;;;;10.98;7.53;;;;;;;23.86;55.73;102549.16;5068003;28;20045;-75
2022/07/09 08:43:54;;;;;;;9.68;8.05;;;;;;;24.01;55.35;102545.56;5060894;28;20124;-76
2022/07/09 08:46:21;;;;;;;12.80;7.30;;;;;;;24.03;55.04;102538.28;5064269;28;20037;-76
2022/07/09 08:48:49;;;;;;;8.25;5.90;;;;;;;24.15;54.97;102544.75;5064190;28;20072;-77
2022/07/09 08:51:19;;;;;;;7.65;5.80;;;;;;;24.14;53.88;102540.31;5054376;28;20041;-77
2022/07/09 08:53:46;;;;;;;9.23;6.25;;;;;;;24.12;54.01;102547.63;5057361;28;20823;-77
2022/07/09 08:56:13;;;;;;;7.22;6.10;;;;;;;24.10;53.77;102541.47;5065151;28;20073;-76
2022/07/09 08:58:41;;;;;;;6.47;5.82;;;;;;;24.16;54.42;102546.47;5065262;28;20644;-76
2022/07/09 09:01:13;;;;;;;6.60;6.00;;;;;;;24.23;54.21;102544.25;5068184;28;20449;-76
2022/07/09 09:03:45;;;;;;;9.35;6.03;;;;;;;24.27;53.95;102544.94;5066040;28;20055;-77
2022/07/09 09:06:14;;;;;;;8.68;5.70;;;;;;;24.33;52.25;102541.88;5063250;28;20068;-76
2022/07/09 09:08:44;;;;;;;7.45;5.25;;;;;;;24.36;52.95;102544.38;5062081;28;20057;-77
2022/07/09 09:11:22;;;;;;;6.22;5.50;;;;;;;24.32;52.10;102540.97;5056950;28;20042;-78
2022/07/09 09:13:51;;;;;;;6.22;4.75;;;;;;;24.24;52.51;102537.91;5065161;28;20041;-78
2022/07/09 09:16:21;;;;;;;8.25;5.35;;;;;;;24.27;53.08;102535.03;5055992;28;20045;-77
2022/07/09 09:18:52;;;;;;;11.35;6.00;;;;;;;24.35;52.70;102534.56;5067205;28;20037;-77
2022/07/09 09:21:24;;;;;;;8.20;5.82;;;;;;;24.43;51.90;102525.97;5054540;28;20038;-75
2022/07/09 09:23:54;;;;;;;8.38;5.88;;;;;;;24.40;52.48;102529.75;5054072;28;20049;-76
2022/07/09 09:26:27;;;;;;;7.55;5.43;;;;;;;24.49;52.82;102536.38;5055835;28;20100;-77
2022/07/09 09:28:58;;;;;;;9.63;6.45;;;;;;;24.57;52.14;102520.59;5059037;28;20799;-77
2022/07/09 09:31:28;;;;;;;7.47;5.72;;;;;;;24.64;51.73;102521.91;5063612;28;20177;-78
2022/07/09 09:34:10;;;;;;;8.45;7.03;;;;;;;24.66;51.82;102513.75;5055284;28;20041;-77
2022/07/09 09:36:40;;;;;;;9.13;6.68;;;;;;;24.79;52.25;102527.34;5063686;28;20416;-78
2022/07/09 09:39:30;;;;;;;13.88;8.90;;;;;;;24.95;51.98;102527.22;5059860;28;20152;-77
2022/07/09 09:42:02;;;;;;;15.10;8.57;;;;;;;25.19;51.93;102526.53;5059751;28;20064;-78
2022/07/09 09:44:40;;;;;;;14.02;7.82;;;;;;;25.38;51.34;102528.88;5066160;28;20095;-78
2022/07/09 09:47:08;;;;;;;8.93;6.63;;;;;;;25.47;51.07;102530.16;5060870;28;20487;-77
2022/07/09 09:49:38;;;;;;;10.13;6.57;;;;;;;25.67;49.50;102532.38;5066370;28;20045;-77
2022/07/09 09:52:08;;;;;;;10.93;8.07;;;;;;;25.57;49.87;102533.97;5063770;28;20041;-78
2022/07/09 09:54:42;;;;;;;11.18;7.80;;;;;;;25.57;49.87;102532.09;5055451;28;20098;-78
2022/07/09 09:57:15;;;;;;;9.63;7.45;;;;;;;25.45;49.95;102530.22;5056296;28;20044;-77
2022/07/09 09:59:47;;;;;;;8.02;6.38;;;;;;;25.30;48.21;102526.69;5058180;28;20049;-77
2022/07/09 10:02:15;;;;;;;9.20;6.38;;;;;;;25.07;49.11;102514.75;5068559;28;20049;-78
2022/07/09 10:04:44;;;;;;;8.60;6.68;;;;;;;25.01;49.38;102520.56;5068431;28;20045;-78
2022/07/09 10:07:15;;;;;;;10.88;6.95;;;;;;;25.14;48.78;102526.84;5067734;28;20053;-77
2022/07/09 10:09:58;;;;;;;10.48;7.45;;;;;;;25.11;49.31;102527.06;5068099;28;20049;-76
2022/07/09 10:12:35;;;;;;;11.00;7.93;;;;;;;24.88;49.77;102525.84;5068172;28;20041;-76
2022/07/09 10:15:22;;;;;;;9.05;7.78;;;;;;;24.57;51.06;102525.13;5068527;28;20029;-77
2022/07/09 10:17:49;;;;;;;13.38;8.40;;;;;;;24.32;51.54;102519.44;5064944;28;20037;-77
2022/07/09 10:20:16;;;;;;;14.93;8.70;;;;;;;24.29;51.99;102513.38;5059829;28;20145;-79
2022/07/09 10:22:48;;;;;;;19.25;9.68;;;;;;;24.30;52.60;102523.19;5056982;28;20034;-76
2022/07/09 10:25:30;;;;;;;10.02;8.85;;;;;;;24.23;52.89;102529.94;5059542;28;20057;-78
2022/07/09 10:27:58;;;;;;;17.02;10.07;;;;;;;24.31;53.56;102528.50;5056209;28;20599;-78
2022/07/09 10:30:28;;;;;;;15.93;11.05;;;;;;;24.59;52.47;102526.75;5052839;28;20076;-79
2022/07/09 10:33:17;;;;;;;13.13;11.05;;;;;;;24.66;52.69;102521.84;5058819;28;20057;-77
2022/07/09 10:35:52;;;;;;;15.52;11.43;;;;;;;24.43;53.18;102518.78;5063391;28;20041;-77
2022/07/09 10:38:24;;;;;;;12.43;10.18;;;;;;;24.35;53.29;102513.00;5062780;28;20046;-78
2022/07/09 10:40:59;;;;;;;15.38;10.55;;;;;;;24.39;53.21;102510.97;5060594;28;20037;-78
2022/07/09 10:43:47;;;;;;;12.55;10.05;;;;;;;24.55;53.91;102506.34;5064398;28;20045;-78
2022/07/09 10:46:15;;;;;;;10.45;9.00;;;;;;;24.61;54.00;102503.25;5055264;28;20516;-78
2022/07/09 10:48:45;;;;;;;13.35;9.35;;;;;;;24.62;52.96;102501.44;5069065;28;20041;-78
2022/07/09 10:51:22;;;;;;;9.05;7.03;;;;;;;24.54;51.77;102509.13;5051501;28;20166;-78
2022/07/09 10:53:51;;;;;;;11.32;8.40;;;;;;;24.42;52.00;102500.88;5067269;28;20512;-77
2022/07/09 10:56:22;;;;;;;11.07;8.77;;;;;;;24.50;52.75;102501.25;5062404;28;20832;-76
2022/07/09 10:58:50;;;;;;;13.43;8.23;;;;;;;24.78;52.96;102499.50;5057887;28;20068;-77
2022/07/09 11:01:24;;;;;;;8.52;6.65;;;;;;;25.27;51.51;102489.16;5061409;28;20037;-78
2022/07/09 11:03:53;;;;;;;8.80;5.93;;;;;;;25.55;49.65;102487.28;5065914;28;20049;-76
2022/07/09 11:06:21;;;;;;;7.70;5.20;;;;;;;25.48;48.16;102486.84;5056085;28;20049;-77
2022/07/09 11:08:48;;;;;;;8.38;6.05;;;;;;;25.41;48.60;102482.84;5060095;28;20119;-77
2022/07/09 11:11:23;;;;;;;8.05;6.18;;;;;;;25.15;49.93;102489.97;5065880;28;20049;-78
2022/07/09 11:13:54;;;;;;;8.43;6.95;;;;;;;24.76;51.53;102484.38;5060258;28;20029;-77
2022/07/09 11:16:24;;;;;;;14.32;8.57;;;;;;;24.55;52.31;102505.47;5066147;28;20227;-76
2022/07/09 11:18:53;;;;;;;13.57;9.02;;;;;;;24.59;52.55;102507.00;5061748;28;20553;-78